Time;durP1;ratioP1;P1;durP2;ratioP2;P2;SDS_P1;SDS_P2;PMS_P1;PMS_P2;Temp;Humidity;BMP_temperature;BMP_pressure;BME280_temperature;BME280_humidity;BME280_pressure;Samples;Min_cycle;Max_cycle;Signal;HPM_P1;HPM_P2
2024/03/11 00:01:54;;;;;;;2.22;1.70;;;7.10;59.00;;;;;;4964654;28;20039;-71
2024/03/11 00:04:20;;;;;;;4.30;1.60;;;7.20;59.00;;;;;;4968403;28;20038;-72
2024/03/11 00:06:48;;;;;;;2.40;1.52;;;7.20;58.90;;;;;;4967622;28;20569;-73
2024/03/11 00:09:25;;;;;;;2.72;1.80;;;7.20;58.90;;;;;;4984577;28;20035;-72
2024/03/11 00:11:58;;;;;;;2.20;1.52;;;7.20;58.90;;;;;;4966849;28;20065;-72
2024/03/11 00:14:33;;;;;;;2.72;1.60;;;7.20;59.00;;;;;;4980385;28;20086;-72
2024/03/11 00:17:03;;;;;;;4.13;2.17;;;7.10;58.90;;;;;;4968552;28;20059;-72
2024/03/11 00:19:29;;;;;;;3.08;1.50;;;7.20;59.00;;;;;;4972044;28;20545;-72
2024/03/11 00:21:57;;;;;;;3.22;1.50;;;7.20;58.90;;;;;;4971987;28;20090;-71
2024/03/11 00:24:24;;;;;;;3.20;1.75;;;7.20;58.80;;;;;;4986331;28;20189;-71
2024/03/11 00:26:51;;;;;;;3.17;2.10;;;7.20;58.70;;;;;;4971825;28;20065;-74
2024/03/11 00:29:17;;;;;;;3.00;1.85;;;7.20;58.60;;;;;;4972587;28;20026;-73
2024/03/11 00:31:44;;;;;;;2.38;1.70;;;7.20;58.80;;;;;;4994875;28;20066;-73
2024/03/11 00:34:10;;;;;;;2.72;1.50;;;7.20;58.80;;;;;;4971036;28;20405;-73
2024/03/11 00:36:37;;;;;;;4.55;1.80;;;7.20;58.80;;;;;;4970116;28;20371;-73
2024/03/11 00:39:03;;;;;;;3.58;2.05;;;7.20;58.70;;;;;;4971589;28;20042;-73
2024/03/11 00:41:32;;;;;;;2.65;1.80;;;7.20;58.70;;;;;;4971180;28;20047;-73
2024/03/11 00:43:58;;;;;;;2.65;1.88;;;7.20;58.70;;;;;;4970940;28;20082;-73
2024/03/11 00:46:24;;;;;;;3.00;1.70;;;7.20;58.70;;;;;;4968920;28;20144;-73
2024/03/11 00:48:50;;;;;;;5.95;1.88;;;7.20;58.60;;;;;;4970504;28;20035;-73
2024/03/11 00:51:17;;;;;;;2.78;1.83;;;7.20;58.70;;;;;;4971248;28;20144;-73
2024/03/11 00:53:43;;;;;;;3.28;1.83;;;7.20;58.80;;;;;;4993846;28;20100;-73
2024/03/11 00:56:09;;;;;;;3.00;2.03;;;7.20;58.80;;;;;;4970663;28;20070;-72
2024/03/11 00:58:35;;;;;;;3.85;2.30;;;7.20;58.80;;;;;;4983396;28;20035;-74
2024/03/11 01:01:05;;;;;;;3.28;1.83;;;7.20;58.90;;;;;;4994947;28;20038;-72
2024/03/11 01:03:32;;;;;;;4.10;1.98;;;7.20;58.90;;;;;;4970415;28;20035;-72
2024/03/11 01:06:01;;;;;;;2.72;2.08;;;7.20;58.90;;;;;;4970568;28;20696;-72
2024/03/11 01:08:31;;;;;;;4.32;2.15;;;7.20;59.50;;;;;;4970112;28;20090;-73
2024/03/11 01:10:57;;;;;;;3.88;1.83;;;7.20;59.00;;;;;;4968326;28;20498;-73
2024/03/11 01:13:23;;;;;;;2.95;2.05;;;7.20;58.90;;;;;;4968792;28;20414;-73
2024/03/11 01:15:50;;;;;;;2.10;1.90;;;7.20;58.80;;;;;;4969041;28;20248;-73
2024/03/11 01:18:17;;;;;;;4.07;2.10;;;7.20;58.90;;;;;;4994229;28;20031;-73
2024/03/11 01:20:43;;;;;;;3.33;2.20;;;7.20;58.90;;;;;;4968558;28;20045;-73
2024/03/11 01:23:10;;;;;;;3.38;1.90;;;7.20;58.90;;;;;;4968546;28;20043;-73
2024/03/11 01:25:36;;;;;;;2.53;1.92;;;7.20;59.10;;;;;;4969324;28;20041;-73
2024/03/11 01:28:04;;;;;;;3.25;2.20;;;7.20;59.20;;;;;;4968097;28;20046;-72
2024/03/11 01:30:30;;;;;;;2.80;2.00;;;7.20;59.00;;;;;;4968477;28;20066;-74
2024/03/11 01:32:56;;;;;;;4.72;2.22;;;7.20;59.00;;;;;;4965224;28;20030;-72
2024/03/11 01:35:22;;;;;;;4.05;2.13;;;7.20;59.00;;;;;;4969298;28;20440;-73
2024/03/11 01:37:48;;;;;;;2.67;1.83;;;7.20;59.00;;;;;;4993264;28;20031;-73
2024/03/11 01:40:15;;;;;;;2.72;2.03;;;7.20;59.00;;;;;;4966471;28;20405;-73
2024/03/11 01:42:42;;;;;;;3.85;2.00;;;7.20;58.90;;;;;;4967195;28;20548;-73
2024/03/11 01:45:14;;;;;;;2.63;2.00;;;7.20;59.00;;;;;;4966249;28;20073;-73
2024/03/11 01:47:42;;;;;;;3.58;2.42;;;7.30;59.00;;;;;;4968685;28;20548;-72
2024/03/11 01:50:09;;;;;;;2.53;1.80;;;7.30;58.90;;;;;;4968725;28;20041;-72
2024/03/11 01:52:43;;;;;;;4.18;2.38;;;7.20;58.80;;;;;;4969541;28;20034;-72
2024/03/11 01:55:10;;;;;;;2.65;2.10;;;7.30;58.90;;;;;;4970529;28;20038;-73
2024/03/11 01:57:37;;;;;;;2.67;2.03;;;7.20;58.90;;;;;;4971871;28;20050;-73
2024/03/11 02:00:08;;;;;;;8.55;2.20;;;7.30;59.00;;;;;;4986804;28;20054;-72
2024/03/11 02:02:40;;;;;;;3.15;2.30;;;7.30;58.90;;;;;;4971144;28;20027;-72
2024/03/11 02:05:13;;;;;;;6.30;2.42;;;7.30;58.90;;;;;;4992302;28;20072;-72
2024/03/11 02:07:39;;;;;;;3.13;2.10;;;7.20;58.90;;;;;;4971974;28;20517;-73
2024/03/11 02:10:13;;;;;;;4.65;2.30;;;7.30;58.80;;;;;;4971598;28;20050;-72
2024/03/11 02:12:45;;;;;;;4.47;2.45;;;7.30;58.70;;;;;;4970644;28;20043;-73
2024/03/11 02:15:11;;;;;;;2.33;1.85;;;7.30;58.70;;;;;;4970525;28;20489;-72
2024/03/11 02:17:44;;;;;;;2.53;1.90;;;7.30;58.90;;;;;;4993347;28;20400;-73
2024/03/11 02:20:16;;;;;;;3.30;2.20;;;7.30;58.70;;;;;;4952634;28;20437;-73
2024/03/11 02:22:50;;;;;;;2.22;1.92;;;7.30;58.70;;;;;;4965881;28;20526;-73
2024/03/11 02:25:18;;;;;;;2.38;2.00;;;7.30;58.80;;;;;;4984992;28;20031;-73
2024/03/11 02:27:47;;;;;;;2.15;1.88;;;7.30;58.90;;;;;;4969709;28;20120;-74
2024/03/11 02:30:15;;;;;;;2.50;1.88;;;7.30;58.80;;;;;;4970001;28;20097;-74
2024/03/11 02:32:42;;;;;;;3.50;2.08;;;7.30;58.70;;;;;;4968270;28;20445;-73
2024/03/11 02:35:10;;;;;;;3.13;2.20;;;7.30;58.70;;;;;;4959399;28;20141;-74
2024/03/11 02:37:36;;;;;;;3.58;2.15;;;7.30;58.70;;;;;;4984661;28;20027;-74
2024/03/11 02:40:03;;;;;;;3.38;1.90;;;7.30;58.70;;;;;;4967332;28;20542;-73
2024/03/11 02:42:32;;;;;;;4.68;2.08;;;7.30;58.70;;;;;;4990263;28;20042;-74
2024/03/11 02:44:59;;;;;;;4.60;2.50;;;7.30;58.60;;;;;;4969494;28;20045;-74
2024/03/11 02:47:26;;;;;;;2.70;2.13;;;7.30;58.80;;;;;;4965165;28;20236;-74
2024/03/11 02:49:53;;;;;;;3.25;2.15;;;7.30;58.80;;;;;;4968431;28;20705;-73
2024/03/11 02:52:21;;;;;;;2.58;2.00;;;7.30;58.50;;;;;;4968811;28;20050;-74
2024/03/11 02:54:50;;;;;;;1.90;1.70;;;7.30;58.40;;;;;;4966049;28;20078;-74
2024/03/11 02:57:17;;;;;;;2.92;2.25;;;7.30;58.40;;;;;;4966059;28;20054;-73
2024/03/11 02:59:44;;;;;;;3.90;2.20;;;7.30;58.40;;;;;;4959393;28;20142;-73
2024/03/11 03:02:11;;;;;;;5.10;2.53;;;7.30;58.40;;;;;;4966727;28;20133;-73
2024/03/11 03:04:40;;;;;;;4.30;2.60;;;7.30;58.30;;;;;;4965040;28;20039;-74
2024/03/11 03:07:07;;;;;;;3.72;2.28;;;7.30;58.30;;;;;;4964655;28;20038;-73
2024/03/11 03:09:36;;;;;;;3.40;2.22;;;7.30;58.20;;;;;;4949101;28;20407;-73
2024/03/11 03:12:03;;;;;;;3.03;2.20;;;7.20;58.10;;;;;;4959718;28;20055;-73
2024/03/11 03:14:30;;;;;;;2.83;1.92;;;7.30;58.00;;;;;;4960338;28;20030;-73
2024/03/11 03:16:57;;;;;;;3.88;2.25;;;7.30;58.10;;;;;;4966350;28;20031;-73
2024/03/11 03:19:23;;;;;;;4.20;2.55;;;7.30;58.20;;;;;;4967889;28;20062;-73
2024/03/11 03:21:50;;;;;;;3.03;2.40;;;7.30;58.40;;;;;;4970014;28;20035;-74
2024/03/11 03:24:16;;;;;;;4.32;2.70;;;7.20;58.20;;;;;;4968440;28;20620;-73
2024/03/11 03:26:43;;;;;;;4.18;2.30;;;7.30;58.10;;;;;;4969948;28;20125;-74
2024/03/11 03:29:09;;;;;;;4.00;2.30;;;7.30;58.20;;;;;;4963935;28;20046;-74
2024/03/11 03:31:37;;;;;;;3.28;2.28;;;7.20;58.10;;;;;;4968904;28;20511;-74
2024/03/11 03:34:04;;;;;;;6.10;2.60;;;7.20;58.10;;;;;;4983377;28;20065;-73
2024/03/11 03:36:31;;;;;;;5.85;2.65;;;7.30;58.10;;;;;;4969092;28;20039;-73
2024/03/11 03:38:57;;;;;;;2.95;2.20;;;7.20;58.10;;;;;;4969016;28;20046;-73
2024/03/11 03:41:23;;;;;;;4.13;2.47;;;7.20;58.10;;;;;;4968902;28;20050;-74
2024/03/11 03:43:49;;;;;;;3.75;2.45;;;7.20;58.00;;;;;;4961696;28;20028;-73
2024/03/11 03:46:18;;;;;;;3.88;2.25;;;7.20;58.00;;;;;;4966185;28;20125;-73
2024/03/11 03:48:46;;;;;;;4.28;2.38;;;7.20;58.00;;;;;;4964874;28;20035;-73
2024/03/11 03:51:12;;;;;;;3.92;2.58;;;7.20;57.90;;;;;;4969270;28;20446;-74
2024/03/11 03:53:38;;;;;;;4.30;2.25;;;7.20;57.90;;;;;;4971998;28;20027;-73
2024/03/11 03:56:05;;;;;;;3.47;2.55;;;7.20;57.90;;;;;;4972193;28;20050;-74
2024/03/11 03:58:31;;;;;;;3.97;2.67;;;7.20;57.90;;;;;;4972436;28;20038;-73
2024/03/11 04:00:59;;;;;;;4.05;2.40;;;7.20;58.00;;;;;;4972613;28;20038;-73
2024/03/11 04:03:27;;;;;;;3.72;2.35;;;7.20;58.10;;;;;;4971578;28;20038;-73
2024/03/11 04:05:53;;;;;;;4.53;2.65;;;7.20;58.00;;;;;;4971490;28;20045;-73
2024/03/11 04:08:20;;;;;;;4.07;2.78;;;7.20;58.10;;;;;;4987059;28;20043;-74
2024/03/11 04:10:49;;;;;;;4.95;2.70;;;7.20;58.20;;;;;;4964959;28;20046;-73
2024/03/11 04:13:16;;;;;;;2.97;2.42;;;7.20;58.50;;;;;;4970149;28;20410;-73
2024/03/11 04:15:42;;;;;;;4.90;2.50;;;7.20;58.30;;;;;;4971041;28;20038;-73
2024/03/11 04:18:10;;;;;;;3.25;2.50;;;7.20;58.40;;;;;;4969510;28;20034;-73
2024/03/11 04:20:37;;;;;;;4.53;2.63;;;7.20;58.30;;;;;;4970564;28;20501;-73
2024/03/11 04:23:07;;;;;;;4.30;2.53;;;7.20;58.40;;;;;;4970200;28;20043;-74
2024/03/11 04:25:37;;;;;;;4.60;2.78;;;7.20;58.40;;;;;;4965652;28;20031;-74
2024/03/11 04:28:06;;;;;;;4.47;2.67;;;7.20;58.40;;;;;;4969870;28;20035;-74
2024/03/11 04:30:35;;;;;;;4.90;2.85;;;7.20;58.40;;;;;;4969072;28;20086;-73
2024/03/11 04:33:02;;;;;;;3.83;2.58;;;7.20;58.40;;;;;;4968913;28;20038;-73
2024/03/11 04:35:33;;;;;;;3.85;2.42;;;7.20;58.40;;;;;;4970095;28;20066;-72
2024/03/11 04:38:03;;;;;;;3.35;2.55;;;7.20;58.40;;;;;;4969145;28;20402;-72
2024/03/11 04:40:34;;;;;;;3.00;2.38;;;7.20;58.30;;;;;;4969043;28;20058;-72
2024/03/11 04:43:01;;;;;;;5.30;2.60;;;7.20;58.30;;;;;;4968429;28;20062;-73
2024/03/11 04:45:28;;;;;;;4.28;2.85;;;7.20;58.50;;;;;;4991674;28;20030;-72
2024/03/11 04:47:58;;;;;;;3.92;2.72;;;7.20;58.40;;;;;;4962517;28;20073;-75
2024/03/11 04:50:26;;;;;;;3.67;2.72;;;7.20;58.40;;;;;;4969733;28;20363;-73
2024/03/11 04:52:58;;;;;;;3.90;2.92;;;7.20;58.70;;;;;;4968816;28;20035;-74
2024/03/11 04:55:26;;;;;;;4.13;2.70;;;7.20;58.90;;;;;;4982525;28;20524;-75
2024/03/11 04:57:53;;;;;;;4.85;2.50;;;7.30;59.10;;;;;;4983549;28;20039;-74
2024/03/11 05:00:26;;;;;;;2.83;2.30;;;7.30;59.30;;;;;;4969071;28;20510;-75
2024/03/11 05:03:03;;;;;;;5.40;3.10;;;7.30;59.60;;;;;;4967894;28;20755;-73
2024/03/11 05:05:36;;;;;;;3.58;2.60;;;7.30;59.60;;;;;;4968606;28;20029;-74
2024/03/11 05:08:05;;;;;;;4.05;2.97;;;7.30;59.80;;;;;;4968521;28;20537;-73
2024/03/11 05:10:32;;;;;;;4.00;2.95;;;7.40;59.90;;;;;;4967756;28;20677;-74
2024/03/11 05:12:58;;;;;;;3.92;3.00;;;7.40;60.00;;;;;;4981503;28;20127;-74
2024/03/11 05:15:28;;;;;;;4.90;3.05;;;7.40;60.10;;;;;;4966331;28;20035;-73
2024/03/11 05:17:54;;;;;;;6.10;3.17;;;7.40;60.20;;;;;;4968239;28;20030;-73
2024/03/11 05:20:20;;;;;;;5.30;3.22;;;7.40;60.10;;;;;;4974374;28;20434;-75
2024/03/11 05:22:48;;;;;;;4.95;3.38;;;7.40;60.20;;;;;;4967194;28;20043;-73
2024/03/11 05:25:14;;;;;;;5.22;3.55;;;7.50;60.20;;;;;;4968206;28;20081;-73
2024/03/11 05:27:46;;;;;;;6.13;3.50;;;7.50;60.20;;;;;;4967555;28;20065;-73
2024/03/11 05:30:13;;;;;;;5.85;3.55;;;7.50;60.10;;;;;;4962230;28;20031;-73
2024/03/11 05:32:40;;;;;;;6.20;3.80;;;7.50;60.00;;;;;;4968055;28;20042;-73
2024/03/11 05:35:07;;;;;;;6.53;3.20;;;7.50;60.00;;;;;;4967770;28;20470;-73
2024/03/11 05:37:33;;;;;;;4.40;3.25;;;7.50;60.10;;;;;;4989255;28;20121;-73
2024/03/11 05:40:00;;;;;;;5.10;3.10;;;7.50;60.00;;;;;;4968304;28;20182;-73
2024/03/11 05:42:26;;;;;;;5.18;3.38;;;7.60;60.00;;;;;;4966757;28;20035;-73
2024/03/11 05:44:52;;;;;;;5.45;2.95;;;7.60;59.90;;;;;;4967280;28;20023;-71
2024/03/11 05:47:18;;;;;;;6.72;3.00;;;7.60;59.80;;;;;;4968016;28;20117;-72
2024/03/11 05:49:44;;;;;;;5.28;3.17;;;7.60;59.60;;;;;;4967787;28;20134;-71
2024/03/11 05:52:10;;;;;;;4.50;3.22;;;7.70;59.50;;;;;;4967650;28;20086;-74
2024/03/11 05:54:38;;;;;;;5.55;3.40;;;7.70;59.30;;;;;;4964560;28;20122;-73
2024/03/11 05:57:08;;;;;;;3.50;2.63;;;7.70;59.20;;;;;;4962440;28;20624;-73
2024/03/11 05:59:35;;;;;;;4.05;2.70;;;7.70;59.20;;;;;;4963756;28;20042;-73
2024/03/11 06:02:01;;;;;;;4.90;2.75;;;7.80;59.20;;;;;;4965109;28;20039;-73
2024/03/11 06:04:27;;;;;;;3.60;3.00;;;7.80;59.20;;;;;;4964081;28;20035;-74
2024/03/11 06:06:54;;;;;;;5.53;2.75;;;7.90;59.50;;;;;;4964105;28;20038;-73
2024/03/11 06:09:20;;;;;;;2.50;2.30;;;7.90;59.40;;;;;;4964812;28;20545;-73
2024/03/11 06:11:49;;;;;;;4.43;2.80;;;8.00;59.50;;;;;;4964583;28;20035;-73
2024/03/11 06:14:16;;;;;;;3.20;2.00;;;8.00;59.50;;;;;;4979703;28;20034;-73
2024/03/11 06:16:43;;;;;;;4.55;2.45;;;8.10;59.90;;;;;;4964382;28;20663;-73
2024/03/11 06:19:10;;;;;;;3.03;2.22;;;8.20;60.20;;;;;;4964451;28;20070;-73
2024/03/11 06:21:37;;;;;;;2.95;2.25;;;8.20;60.00;;;;;;4964245;28;20035;-73
2024/03/11 06:24:05;;;;;;;3.80;2.00;;;8.30;59.90;;;;;;4964337;28;20757;-72
2024/03/11 06:26:34;;;;;;;2.92;2.13;;;8.40;59.70;;;;;;4964790;28;20046;-73
2024/03/11 06:29:06;;;;;;;3.22;2.28;;;8.40;59.40;;;;;;4964111;28;20082;-73
2024/03/11 06:31:33;;;;;;;2.88;2.35;;;8.50;59.40;;;;;;4964182;28;20093;-72
2024/03/11 06:34:03;;;;;;;3.38;2.30;;;8.60;59.30;;;;;;4964082;28;20031;-73
2024/03/11 06:36:29;;;;;;;2.15;1.90;;;8.70;59.20;;;;;;4963587;28;20030;-73
2024/03/11 06:38:58;;;;;;;2.42;1.95;;;8.70;58.90;;;;;;4963329;28;20031;-73
2024/03/11 06:41:25;;;;;;;5.88;2.95;;;8.70;59.40;;;;;;4963861;28;20037;-74
2024/03/11 06:43:52;;;;;;;2.65;1.90;;;8.80;58.70;;;;;;4986065;28;20484;-73
2024/03/11 06:46:18;;;;;;;2.60;1.90;;;8.80;58.60;;;;;;4964313;28;20066;-73
2024/03/11 06:48:44;;;;;;;2.80;1.90;;;8.80;58.50;;;;;;4963234;28;20685;-73
2024/03/11 06:51:12;;;;;;;2.22;1.67;;;8.80;58.40;;;;;;4964231;28;20038;-73
2024/03/11 06:53:39;;;;;;;2.60;1.70;;;8.90;58.40;;;;;;4963626;28;20046;-73
2024/03/11 06:56:10;;;;;;;3.42;1.83;;;8.90;58.40;;;;;;4963776;28;20130;-73
2024/03/11 06:58:38;;;;;;;2.20;1.98;;;9.00;58.50;;;;;;4962955;28;20038;-73
2024/03/11 07:01:10;;;;;;;2.50;2.10;;;9.10;58.60;;;;;;4961841;28;20046;-74
2024/03/11 07:03:37;;;;;;;2.78;2.00;;;9.20;58.60;;;;;;4962982;28;20045;-74
2024/03/11 07:06:04;;;;;;;3.13;1.75;;;9.20;58.50;;;;;;4962769;28;20042;-73
2024/03/11 07:08:32;;;;;;;2.53;1.90;;;9.30;58.50;;;;;;4963879;28;20041;-74
2024/03/11 07:11:00;;;;;;;2.10;1.85;;;9.40;58.40;;;;;;4957719;28;20442;-74
2024/03/11 07:13:31;;;;;;;2.83;1.80;;;9.40;58.30;;;;;;4962866;28;20034;-73
2024/03/11 07:15:58;;;;;;;2.35;1.70;;;9.50;58.20;;;;;;4963883;28;20713;-74
2024/03/11 07:18:24;;;;;;;2.47;1.90;;;9.50;58.00;;;;;;4962277;28;20039;-74
2024/03/11 07:20:52;;;;;;;1.98;1.63;;;9.60;57.90;;;;;;4963812;28;20031;-74
2024/03/11 07:23:19;;;;;;;2.08;1.60;;;9.60;57.80;;;;;;4977504;28;20042;-74
2024/03/11 07:25:45;;;;;;;1.70;1.40;;;9.60;57.70;;;;;;4962443;28;20057;-74
2024/03/11 07:28:12;;;;;;;2.55;1.55;;;9.60;57.60;;;;;;4985367;28;20501;-74
2024/03/11 07:30:39;;;;;;;2.10;1.67;;;9.70;57.50;;;;;;4978376;28;20371;-74
2024/03/11 07:33:09;;;;;;;1.90;1.58;;;9.70;57.40;;;;;;4962757;28;20497;-74
2024/03/11 07:35:37;;;;;;;2.55;1.55;;;9.70;57.40;;;;;;4964937;28;20125;-73
2024/03/11 07:38:06;;;;;;;2.03;1.58;;;9.70;57.80;;;;;;4963447;28;20070;-73
2024/03/11 07:40:34;;;;;;;1.80;1.50;;;9.70;57.20;;;;;;4963852;28;20043;-74
2024/03/11 07:43:03;;;;;;;2.65;1.70;;;9.80;57.20;;;;;;4963439;28;20042;-73
2024/03/11 07:45:29;;;;;;;2.72;1.73;;;9.80;57.10;;;;;;4963557;28;20031;-73
2024/03/11 07:47:55;;;;;;;2.55;1.27;;;9.80;57.20;;;;;;4963369;28;20042;-74
2024/03/11 07:50:23;;;;;;;6.25;1.60;;;9.90;57.20;;;;;;4957685;28;20121;-73
2024/03/11 07:52:50;;;;;;;1.65;1.33;;;9.90;57.20;;;;;;4962598;28;20044;-73
2024/03/11 07:55:17;;;;;;;1.67;1.45;;;9.90;57.10;;;;;;4963747;28;20035;-73
2024/03/11 07:57:46;;;;;;;3.70;1.48;;;9.90;57.10;;;;;;4961697;28;20097;-73
2024/03/11 08:00:18;;;;;;;2.08;1.50;;;10.00;57.30;;;;;;4961691;28;20038;-73
2024/03/11 08:02:53;;;;;;;1.90;1.45;;;10.00;57.30;;;;;;4940833;28;20109;-73
2024/03/11 08:05:18;;;;;;;1.95;1.35;;;10.10;57.40;;;;;;4962099;28;20054;-74
2024/03/11 08:07:47;;;;;;;1.70;1.40;;;10.10;57.50;;;;;;4962333;28;20035;-73
2024/03/11 08:10:14;;;;;;;1.45;1.30;;;10.10;57.50;;;;;;4962787;28;20035;-73
2024/03/11 08:12:44;;;;;;;1.08;0.98;;;10.10;57.70;;;;;;4963088;28;20026;-73
2024/03/11 08:15:12;;;;;;;1.30;1.10;;;10.20;57.70;;;;;;4963337;28;20034;-74
2024/03/11 08:17:39;;;;;;;1.40;1.30;;;10.20;57.70;;;;;;4962537;28;20027;-74
2024/03/11 08:20:09;;;;;;;1.48;1.30;;;10.30;58.10;;;;;;4962780;28;20613;-74
2024/03/11 08:22:37;;;;;;;1.30;1.20;;;10.30;58.30;;;;;;4956812;28;20130;-73
2024/03/11 08:25:07;;;;;;;1.77;1.58;;;10.30;58.40;;;;;;4963243;28;20038;-74
2024/03/11 08:27:33;;;;;;;1.75;1.27;;;10.40;58.50;;;;;;4963025;28;20063;-74
2024/03/11 08:29:59;;;;;;;1.65;1.30;;;10.40;58.40;;;;;;4962807;28;20046;-74
2024/03/11 08:32:26;;;;;;;2.00;1.50;;;10.50;58.50;;;;;;4987562;28;20039;-73
2024/03/11 08:34:54;;;;;;;1.83;1.17;;;10.50;58.40;;;;;;4963954;28;20035;-73
2024/03/11 08:37:23;;;;;;;1.40;1.20;;;10.50;58.40;;;;;;4978486;28;20581;-73
2024/03/11 08:39:50;;;;;;;1.90;1.17;;;10.60;58.40;;;;;;4965993;28;20051;-74
2024/03/11 08:42:16;;;;;;;1.38;1.20;;;10.60;58.40;;;;;;4966539;28;20109;-74
2024/03/11 08:44:43;;;;;;;1.50;1.38;;;10.60;58.40;;;;;;4967194;28;20034;-73
2024/03/11 08:47:11;;;;;;;2.58;1.20;;;10.70;58.40;;;;;;4959321;28;20038;-73
2024/03/11 08:49:40;;;;;;;1.25;1.10;;;10.70;58.30;;;;;;4964834;28;20035;-73
2024/03/11 08:52:06;;;;;;;1.40;1.30;;;10.70;58.30;;;;;;4981343;28;20034;-71
2024/03/11 08:54:33;;;;;;;1.85;1.60;;;10.70;58.20;;;;;;4980579;28;20538;-73
2024/03/11 08:56:59;;;;;;;2.22;2.00;;;10.80;58.30;;;;;;4966717;28;20181;-72
2024/03/11 08:59:26;;;;;;;5.78;4.03;;;10.80;58.00;;;;;;4965880;28;20038;-72
2024/03/11 09:01:57;;;;;;;7.15;5.93;;;10.80;58.00;;;;;;4964830;28;20386;-72
2024/03/11 09:04:24;;;;;;;20.70;15.48;;;10.90;58.30;;;;;;4965753;28;20122;-73
2024/03/11 09:06:50;;;;;;;39.63;29.92;;;10.90;58.70;;;;;;4966164;28;20089;-72
2024/03/11 09:09:16;;;;;;;45.10;36.53;;;10.90;58.90;;;;;;4947937;28;21331;-72
2024/03/11 09:11:42;;;;;;;52.55;43.15;;;11.00;59.10;;;;;;4965801;28;20034;-72
2024/03/11 09:14:10;;;;;;;56.28;45.55;;;11.00;59.30;;;;;;4965268;28;20046;-72
2024/03/11 09:16:38;;;;;;;60.88;48.17;;;11.00;59.40;;;;;;4966640;28;20397;-72
2024/03/11 09:19:04;;;;;;;59.70;47.92;;;11.00;59.50;;;;;;4965112;28;20103;-73
2024/03/11 09:21:31;;;;;;;61.50;50.03;;;11.10;59.60;;;;;;4957722;28;20035;-71
2024/03/11 09:23:57;;;;;;;58.80;47.08;;;11.10;59.60;;;;;;4964929;28;20594;-72
2024/03/11 09:26:23;;;;;;;58.83;48.28;;;11.10;59.60;;;;;;4966490;28;20031;-71
2024/03/11 09:28:49;;;;;;;54.67;46.05;;;11.10;59.50;;;;;;4966258;28;20505;-71
2024/03/11 09:31:15;;;;;;;50.72;43.05;;;11.20;59.40;;;;;;4964257;28;20041;-72
2024/03/11 09:33:42;;;;;;;51.72;42.67;;;11.10;59.30;;;;;;4964276;28;20051;-72
2024/03/11 09:36:08;;;;;;;49.53;39.92;;;11.20;59.20;;;;;;4963745;28;20442;-73
2024/03/11 09:38:35;;;;;;;43.60;36.80;;;11.20;59.20;;;;;;4966145;28;20037;-74
2024/03/11 09:41:14;;;;;;;39.28;33.17;;;11.20;58.90;;;;;;4963699;28;20070;-74
2024/03/11 09:43:48;;;;;;;36.30;30.33;;;11.20;58.70;;;;;;4979621;28;20035;-74
2024/03/11 09:46:21;;;;;;;35.90;29.77;;;11.20;58.70;;;;;;4965297;28;20061;-74
2024/03/11 09:48:51;;;;;;;30.33;25.58;;;11.20;58.60;;;;;;4964703;28;20723;-72
2024/03/11 09:51:21;;;;;;;30.33;24.83;;;11.30;58.50;;;;;;4965271;28;20034;-73
2024/03/11 09:53:58;;;;;;;27.17;22.70;;;11.30;58.30;;;;;;4964111;28;20031;-72
2024/03/11 09:56:24;;;;;;;25.20;20.25;;;11.30;58.20;;;;;;4980539;28;20135;-74
2024/03/11 09:58:57;;;;;;;22.95;19.38;;;11.30;58.10;;;;;;4965237;28;20133;-73
2024/03/11 10:01:33;;;;;;;20.20;17.83;;;11.30;57.90;;;;;;4964957;28;20039;-73
2024/03/11 10:04:00;;;;;;;19.10;17.08;;;11.30;57.90;;;;;;4964811;28;20085;-73
2024/03/11 10:06:30;;;;;;;18.30;14.95;;;11.30;57.80;;;;;;4980005;28;20042;-73
2024/03/11 10:08:57;;;;;;;15.77;13.80;;;11.30;57.60;;;;;;4963380;28;20023;-73
2024/03/11 10:11:28;;;;;;;16.63;13.95;;;11.40;57.60;;;;;;4965545;28;20112;-73
2024/03/11 10:13:57;;;;;;;15.00;12.48;;;11.40;57.60;;;;;;4962347;28;20053;-73
2024/03/11 10:16:26;;;;;;;14.05;12.13;;;11.40;57.40;;;;;;4964320;28;20046;-72
2024/03/11 10:18:52;;;;;;;14.45;12.07;;;11.40;57.20;;;;;;4964357;28;20062;-72
2024/03/11 10:21:19;;;;;;;14.07;11.00;;;11.40;57.20;;;;;;4962785;28;20093;-74
2024/03/11 10:23:48;;;;;;;12.70;10.82;;;11.40;57.20;;;;;;4963016;28;20395;-73
2024/03/11 10:26:18;;;;;;;13.23;11.82;;;11.40;57.10;;;;;;4963059;28;20585;-74
2024/03/11 10:28:49;;;;;;;12.98;10.80;;;11.40;57.20;;;;;;4964569;28;20086;-73
2024/03/11 10:31:23;;;;;;;10.68;9.48;;;11.40;57.20;;;;;;4959560;28;20047;-73
2024/03/11 10:33:52;;;;;;;11.95;9.73;;;11.40;57.20;;;;;;4964268;28;20035;-73
2024/03/11 10:36:20;;;;;;;11.13;9.20;;;11.40;57.20;;;;;;4964350;28;20047;-73
2024/03/11 10:38:47;;;;;;;11.45;9.50;;;11.40;57.20;;;;;;4963457;28;20041;-74
2024/03/11 10:41:21;;;;;;;11.02;8.63;;;11.40;57.30;;;;;;4960416;28;20034;-74
2024/03/11 10:43:51;;;;;;;10.75;9.50;;;11.40;57.10;;;;;;4963841;28;20089;-73
2024/03/11 10:46:22;;;;;;;10.18;9.10;;;11.40;57.20;;;;;;4963965;28;20185;-73
2024/03/11 10:48:51;;;;;;;10.57;8.63;;;11.40;57.20;;;;;;4961983;28;20042;-74
2024/03/11 10:51:24;;;;;;;8.73;7.43;;;11.40;57.20;;;;;;4959774;28;20042;-73
2024/03/11 10:53:53;;;;;;;8.18;7.30;;;11.40;57.00;;;;;;4963978;28;20041;-74
2024/03/11 10:56:20;;;;;;;8.15;7.35;;;11.40;56.90;;;;;;4963057;28;20031;-74
2024/03/11 10:58:55;;;;;;;7.75;6.95;;;11.40;56.90;;;;;;4961510;28;20041;-73
2024/03/11 11:01:35;;;;;;;7.40;6.25;;;11.40;57.00;;;;;;4962982;28;20039;-73
2024/03/11 11:04:13;;;;;;;7.45;6.55;;;11.40;56.90;;;;;;4963715;28;20564;-73
2024/03/11 11:06:51;;;;;;;7.63;6.53;;;11.40;56.90;;;;;;4963604;28;20097;-75
2024/03/11 11:09:19;;;;;;;8.20;6.32;;;11.40;56.90;;;;;;4978636;28;20046;-74
2024/03/11 11:11:53;;;;;;;6.93;6.10;;;11.40;57.00;;;;;;4977711;28;20577;-73
2024/03/11 11:14:20;;;;;;;6.78;6.00;;;11.40;57.10;;;;;;4964003;28;20035;-74
2024/03/11 11:16:49;;;;;;;7.13;6.20;;;11.40;57.10;;;;;;4970365;28;20034;-72
2024/03/11 11:19:22;;;;;;;6.53;5.38;;;11.40;57.00;;;;;;4962169;28;20387;-72
2024/03/11 11:21:52;;;;;;;6.82;5.43;;;11.40;57.10;;;;;;4956816;28;20096;-74
2024/03/11 11:24:29;;;;;;;6.07;5.28;;;11.40;56.90;;;;;;4963470;28;20042;-73
2024/03/11 11:26:58;;;;;;;5.38;4.70;;;11.40;56.60;;;;;;4978921;28;20061;-73
2024/03/11 11:29:27;;;;;;;5.35;4.60;;;11.40;57.20;;;;;;4966765;28;21588;-76
2024/03/11 11:32:08;;;;;;;6.80;5.38;;;11.40;56.40;;;;;;4979330;28;20130;-75
2024/03/11 11:34:46;;;;;;;9.93;5.72;;;11.40;57.00;;;;;;4967093;28;20050;-76
2024/03/11 11:37:25;;;;;;;6.85;5.57;;;11.50;57.90;;;;;;4983406;28;20134;-76
2024/03/11 11:39:51;;;;;;;7.07;5.53;;;11.60;58.30;;;;;;4966423;28;20418;-77
2024/03/11 11:42:39;;;;;;;5.70;5.10;;;11.60;58.40;;;;;;4982933;28;20045;-75
2024/03/11 11:45:15;;;;;;;5.20;4.70;;;11.70;58.50;;;;;;4966321;28;20038;-75
2024/03/11 11:47:43;;;;;;;5.25;4.75;;;11.80;58.50;;;;;;4968875;28;20129;-75
2024/03/11 11:50:28;;;;;;;5.35;4.60;;;11.90;58.50;;;;;;4962939;28;20058;-75
2024/03/11 11:53:03;;;;;;;5.55;5.00;;;12.00;58.50;;;;;;4967404;28;20047;-75
2024/03/11 11:55:30;;;;;;;5.30;4.40;;;12.00;58.40;;;;;;4991365;28;20409;-75
2024/03/11 11:58:07;;;;;;;6.03;4.00;;;12.10;58.40;;;;;;4966777;28;20039;-75
2024/03/11 12:00:45;;;;;;;4.88;4.22;;;12.20;58.40;;;;;;4967003;28;20054;-75
2024/03/11 12:03:30;;;;;;;5.53;3.95;;;12.30;58.30;;;;;;4966901;28;20386;-75
2024/03/11 12:06:03;;;;;;;4.40;4.00;;;12.30;58.10;;;;;;4967345;28;20039;-77
2024/03/11 12:08:32;;;;;;;4.32;3.80;;;12.40;57.90;;;;;;4967473;28;20629;-74
2024/03/11 12:11:14;;;;;;;4.68;4.18;;;12.50;57.90;;;;;;4966306;28;20054;-76
2024/03/11 12:13:43;;;;;;;3.83;3.50;;;12.50;57.70;;;;;;4969030;28;20073;-76
2024/03/11 12:16:11;;;;;;;4.20;3.60;;;12.60;57.60;;;;;;4970257;28;20049;-76
2024/03/11 12:18:39;;;;;;;3.90;3.17;;;12.70;57.50;;;;;;4969285;28;20121;-76
2024/03/11 12:21:11;;;;;;;3.83;3.40;;;12.70;57.30;;;;;;4968343;28;20125;-76
2024/03/11 12:23:38;;;;;;;3.50;3.10;;;12.80;57.20;;;;;;4969259;28;20045;-76
2024/03/11 12:26:09;;;;;;;4.10;3.40;;;12.80;57.10;;;;;;4969785;28;20039;-75
2024/03/11 12:28:37;;;;;;;3.92;3.53;;;12.90;57.10;;;;;;4970230;28;20046;-75
2024/03/11 12:31:05;;;;;;;3.20;2.90;;;12.90;57.00;;;;;;4984435;28;20129;-75
2024/03/11 12:33:34;;;;;;;2.97;2.75;;;13.00;57.10;;;;;;4984029;28;20031;-75
2024/03/11 12:36:04;;;;;;;2.85;2.55;;;13.00;56.90;;;;;;4968159;28;20145;-75
2024/03/11 12:38:32;;;;;;;3.03;2.72;;;13.00;56.70;;;;;;4984816;28;20062;-75
2024/03/11 12:40:58;;;;;;;2.55;2.35;;;13.10;56.60;;;;;;4963489;28;20035;-75
2024/03/11 12:43:30;;;;;;;3.53;3.03;;;13.10;56.60;;;;;;4968576;28;20042;-75
2024/03/11 12:46:00;;;;;;;3.10;2.80;;;13.20;56.40;;;;;;4969319;28;20038;-75
2024/03/11 12:48:29;;;;;;;2.67;2.47;;;13.30;56.30;;;;;;4968787;28;20031;-75
2024/03/11 12:50:57;;;;;;;4.57;3.20;;;13.30;56.30;;;;;;4969078;28;20034;-75
2024/03/11 12:53:25;;;;;;;3.40;2.40;;;13.30;56.20;;;;;;4971938;28;20038;-75
2024/03/11 12:56:08;;;;;;;3.03;2.50;;;13.30;56.00;;;;;;4966013;28;20038;-75
2024/03/11 12:58:36;;;;;;;2.50;2.30;;;13.40;55.80;;;;;;4971725;28;20038;-75